Time;durP1;ratioP1;P1;durP2;ratioP2;P2;SDS_P1;SDS_P2;PMS_P1;PMS_P2;Temp;Humidity;BMP_temperature;BMP_pressure;BME280_temperature;BME280_humidity;BME280_pressure;Samples;Min_cycle;Max_cycle;Signal;HPM_P1;HPM_P2
2022/05/31 00:01:47;;;;;;;5.25;1.85;;;6.40;99.90;;;;;;5099273;28;20014;-65
2022/05/31 00:04:15;;;;;;;6.00;1.90;;;6.30;99.90;;;;;;5092621;28;20044;-65
2022/05/31 00:06:42;;;;;;;8.45;2.05;;;6.30;99.90;;;;;;5092406;28;20415;-65
2022/05/31 00:09:08;;;;;;;3.80;1.80;;;6.30;99.90;;;;;;5085681;28;20035;-63
2022/05/31 00:11:36;;;;;;;5.00;1.75;;;6.20;99.90;;;;;;5091435;28;20117;-62
2022/05/31 00:14:03;;;;;;;6.65;1.95;;;6.20;99.90;;;;;;5084466;28;20036;-63
2022/05/31 00:16:29;;;;;;;5.63;2.13;;;6.20;99.90;;;;;;5089736;28;20058;-62
2022/05/31 00:18:54;;;;;;;;;;;6.30;99.90;;;;;;5074103;28;20067;-62
2022/05/31 00:21:21;;;;;;;9.85;2.30;;;6.20;99.90;;;;;;5073944;28;20345;-62
2022/05/31 00:23:46;;;;;;;3.28;1.95;;;6.20;99.90;;;;;;5082602;28;20518;-63
2022/05/31 00:26:12;;;;;;;;;;;6.20;99.90;;;;;;5076768;28;20036;-63
2022/05/31 00:28:37;;;;;;;4.55;1.80;;;6.20;99.90;;;;;;5077120;28;19916;-62
2022/05/31 00:31:03;;;;;;;;;;;6.20;99.90;;;;;;5077291;28;20056;-63
2022/05/31 00:33:29;;;;;;;8.68;1.80;;;6.10;99.90;;;;;;5078618;28;20372;-63
2022/05/31 00:35:55;;;;;;;6.70;2.60;;;6.10;99.90;;;;;;5069095;28;20049;-62
2022/05/31 00:38:21;;;;;;;;;;;6.10;99.90;;;;;;5079956;28;20094;-63
2022/05/31 00:40:47;;;;;;;8.20;2.10;;;6.10;99.90;;;;;;5068723;28;20461;-63
2022/05/31 00:43:14;;;;;;;;;;;6.10;99.90;;;;;;5079681;28;20036;-62
2022/05/31 00:45:43;;;;;;;6.72;1.77;;;6.10;99.90;;;;;;5068949;28;19943;-63
2022/05/31 00:48:15;;;;;;;3.70;1.65;;;6.00;99.90;;;;;;5079106;28;20109;-62
2022/05/31 00:50:45;;;;;;;3.35;1.90;;;6.10;99.90;;;;;;5069942;28;21020;-63
2022/05/31 00:53:16;;;;;;;5.65;2.20;;;6.10;99.90;;;;;;5080061;28;20412;-64
2022/05/31 00:55:50;;;;;;;8.45;2.03;;;6.10;99.90;;;;;;5068173;28;20621;-63
2022/05/31 00:58:29;;;;;;;6.20;2.00;;;6.10;99.90;;;;;;5078857;28;20044;-63
2022/05/31 01:00:57;;;;;;;3.72;1.65;;;6.10;99.90;;;;;;5083974;28;20043;-63
2022/05/31 01:03:23;;;;;;;6.22;1.90;;;6.10;99.90;;;;;;5080878;28;20076;-63
2022/05/31 01:05:49;;;;;;;4.95;2.42;;;6.10;99.90;;;;;;5080984;28;20093;-63
2022/05/31 01:08:15;;;;;;;;;;;6.10;99.90;;;;;;5083237;28;20068;-64
2022/05/31 01:10:42;;;;;;;10.57;2.17;;;6.10;99.90;;;;;;5067134;28;19916;-65
2022/05/31 01:13:10;;;;;;;10.00;2.10;;;6.10;99.90;;;;;;5069236;28;20040;-64
2022/05/31 01:15:36;;;;;;;7.60;2.03;;;6.10;99.90;;;;;;5088017;28;20040;-64
2022/05/31 01:18:02;;;;;;;;;;;6.10;99.90;;;;;;5078852;28;20503;-64
2022/05/31 01:20:28;;;;;;;9.60;2.70;;;6.10;99.90;;;;;;5088222;28;19912;-64
2022/05/31 01:22:56;;;;;;;7.10;3.30;;;6.10;99.90;;;;;;5079733;28;20043;-64
2022/05/31 01:25:22;;;;;;;4.32;1.95;;;6.00;99.90;;;;;;5087826;28;20441;-63
2022/05/31 01:27:50;;;;;;;;;;;6.00;99.90;;;;;;5080598;28;20038;-64
2022/05/31 01:30:17;;;;;;;3.45;1.77;;;6.00;99.90;;;;;;5071079;28;19916;-64
2022/05/31 01:32:55;;;;;;;5.75;2.20;;;6.00;99.90;;;;;;5078205;28;20048;-64
2022/05/31 01:35:31;;;;;;;5.20;1.88;;;6.00;99.90;;;;;;5086171;28;20048;-63
2022/05/31 01:38:21;;;;;;;5.80;2.10;;;6.00;99.90;;;;;;5080257;28;20044;-64
2022/05/31 01:40:48;;;;;;;3.85;2.33;;;6.00;99.90;;;;;;5067264;28;20428;-63
2022/05/31 01:43:14;;;;;;;5.13;2.25;;;6.00;99.90;;;;;;5077381;28;20028;-64
2022/05/31 01:45:58;;;;;;;;;;;6.00;99.90;;;;;;5087885;28;20085;-64
2022/05/31 01:48:25;;;;;;;10.52;2.40;;;6.00;99.90;;;;;;5077302;28;19920;-63
2022/05/31 01:50:51;;;;;;;7.57;2.33;;;6.00;99.90;;;;;;5067139;28;20500;-63
2022/05/31 01:53:17;;;;;;;;;;;6.00;99.90;;;;;;5075934;28;20043;-64
2022/05/31 01:55:44;;;;;;;3.42;1.80;;;6.00;99.90;;;;;;5076887;28;19923;-63
2022/05/31 01:58:17;;;;;;;6.38;2.30;;;6.00;99.90;;;;;;5072182;28;20089;-63
2022/05/31 02:00:43;;;;;;;3.75;1.98;;;6.00;99.90;;;;;;5082376;28;20036;-64
2022/05/31 02:03:09;;;;;;;;;;;6.00;99.90;;;;;;5072479;28;20090;-64
2022/05/31 02:05:35;;;;;;;4.80;2.05;;;5.90;99.90;;;;;;5081476;28;19924;-64
2022/05/31 02:08:03;;;;;;;5.10;2.05;;;5.80;99.90;;;;;;5082496;28;20081;-64
2022/05/31 02:10:29;;;;;;;5.07;2.03;;;5.80;99.90;;;;;;5079171;28;20414;-65
2022/05/31 02:12:55;;;;;;;7.20;2.78;;;5.70;99.90;;;;;;5082717;28;20733;-64
2022/05/31 02:15:23;;;;;;;5.03;2.35;;;5.80;99.90;;;;;;5079483;28;20039;-63
2022/05/31 02:17:49;;;;;;;2.72;2.05;;;5.60;99.90;;;;;;5085415;28;20077;-64
2022/05/31 02:20:15;;;;;;;;;;;5.60;99.90;;;;;;5078152;28;20039;-64
2022/05/31 02:22:40;;;;;;;5.95;2.30;;;5.70;99.90;;;;;;5078857;28;19995;-63
2022/05/31 02:25:07;;;;;;;;;;;5.70;99.90;;;;;;5077059;28;20036;-64
2022/05/31 02:27:32;;;;;;;9.10;2.47;;;5.70;99.90;;;;;;5066301;28;20000;-64
2022/05/31 02:29:58;;;;;;;5.38;2.15;;;5.70;99.90;;;;;;5073770;28;20123;-64
2022/05/31 02:32:24;;;;;;;6.18;2.03;;;5.60;99.90;;;;;;5070609;28;20066;-61
2022/05/31 02:34:50;;;;;;;;;;;5.60;99.90;;;;;;5076615;28;20041;-62
2022/05/31 02:37:17;;;;;;;3.38;2.03;;;5.60;99.90;;;;;;5070350;28;19916;-62
2022/05/31 02:39:43;;;;;;;4.70;2.10;;;5.60;99.90;;;;;;5086621;28;20040;-62
2022/05/31 02:42:10;;;;;;;6.95;1.88;;;5.60;99.90;;;;;;5093402;28;20048;-62
2022/05/31 02:44:37;;;;;;;4.50;2.30;;;5.50;99.90;;;;;;5077717;28;20036;-62
2022/05/31 02:47:03;;;;;;;4.05;1.95;;;5.60;99.90;;;;;;5106064;28;20035;-62
2022/05/31 02:49:29;;;;;;;3.78;2.13;;;5.60;99.90;;;;;;5096195;28;20039;-62
2022/05/31 02:51:57;;;;;;;;;;;5.60;99.90;;;;;;5094620;28;20036;-62
2022/05/31 02:54:22;;;;;;;3.80;1.75;;;5.70;99.90;;;;;;5078645;28;20491;-62
2022/05/31 02:56:48;;;;;;;;;;;5.70;99.90;;;;;;5086689;28;20067;-63
2022/05/31 02:59:14;;;;;;;8.45;2.75;;;5.80;99.90;;;;;;5081288;28;20368;-63
2022/05/31 03:01:41;;;;;;;7.70;2.40;;;5.80;99.90;;;;;;5085192;28;20057;-62
2022/05/31 03:04:07;;;;;;;5.40;2.67;;;5.90;99.90;;;;;;5083132;28;20042;-62
2022/05/31 03:06:34;;;;;;;4.28;2.15;;;5.90;99.90;;;;;;5071504;28;20040;-62
2022/05/31 03:08:59;;;;;;;9.85;2.72;;;5.90;99.90;;;;;;5075045;28;20142;-60
2022/05/31 03:11:33;;;;;;;;;;;5.90;99.90;;;;;;5080639;28;20119;-62
2022/05/31 03:14:06;;;;;;;6.35;1.88;;;5.90;99.90;;;;;;5086461;28;19923;-61
2022/05/31 03:16:34;;;;;;;4.38;1.98;;;5.90;99.90;;;;;;5072061;28;20089;-62
2022/05/31 03:19:05;;;;;;;2.97;1.65;;;5.80;99.90;;;;;;5068399;28;20119;-62
2022/05/31 03:21:36;;;;;;;5.45;2.30;;;5.80;99.90;;;;;;5073368;28;20501;-61
2022/05/31 03:24:11;;;;;;;7.30;2.03;;;5.80;99.90;;;;;;5068107;28;20488;-62
2022/05/31 03:26:40;;;;;;;5.95;2.33;;;5.90;99.90;;;;;;5073018;28;20076;-62
2022/05/31 03:29:05;;;;;;;7.00;2.55;;;5.90;99.90;;;;;;5068171;28;20039;-64
2022/05/31 03:31:31;;;;;;;;;;;5.90;99.90;;;;;;5069099;28;20412;-62
2022/05/31 03:33:58;;;;;;;6.85;2.63;;;5.90;99.90;;;;;;5066259;28;19955;-63
2022/05/31 03:36:23;;;;;;;3.67;1.88;;;5.90;99.90;;;;;;5076007;28;20074;-63
2022/05/31 03:38:49;;;;;;;;;;;6.00;99.90;;;;;;5086719;28;20052;-63
2022/05/31 03:41:15;;;;;;;9.10;2.58;;;6.00;99.90;;;;;;5077360;28;20007;-63
2022/05/31 03:43:42;;;;;;;7.53;2.15;;;6.00;99.90;;;;;;5065663;28;20159;-62
2022/05/31 03:46:15;;;;;;;4.03;2.00;;;6.00;99.90;;;;;;5076418;28;20124;-63
2022/05/31 03:48:41;;;;;;;3.55;2.08;;;6.00;99.90;;;;;;5066131;28;20064;-63
2022/05/31 03:51:08;;;;;;;;;;;6.10;99.90;;;;;;5076766;28;20072;-63
2022/05/31 03:53:34;;;;;;;4.57;2.30;;;6.00;99.90;;;;;;5068312;28;19920;-62
2022/05/31 03:56:05;;;;;;;7.13;2.00;;;6.00;99.90;;;;;;5074835;28;20047;-63
2022/05/31 03:58:31;;;;;;;6.28;2.13;;;6.10;99.90;;;;;;5085830;28;20587;-62
2022/05/31 04:00:57;;;;;;;7.57;2.50;;;6.10;99.90;;;;;;5080803;28;20094;-63
2022/05/31 04:03:24;;;;;;;4.70;1.95;;;6.10;99.90;;;;;;5087289;28;20048;-63
2022/05/31 04:05:49;;;;;;;6.65;2.33;;;6.20;99.90;;;;;;5078870;28;20478;-64
2022/05/31 04:08:15;;;;;;;;;;;6.20;99.90;;;;;;5069829;28;20074;-64
2022/05/31 04:10:43;;;;;;;4.43;2.03;;;6.20;99.90;;;;;;5078214;28;19912;-63
2022/05/31 04:13:09;;;;;;;7.00;2.05;;;6.20;99.90;;;;;;5069064;28;20687;-62
2022/05/31 04:15:35;;;;;;;5.13;2.17;;;6.20;99.90;;;;;;5076961;28;20111;-63
2022/05/31 04:18:02;;;;;;;;;;;6.30;99.90;;;;;;5091215;28;20091;-63
2022/05/31 04:20:28;;;;;;;5.90;1.88;;;6.30;99.90;;;;;;5091555;28;20249;-63
2022/05/31 04:23:57;;;;;;;4.75;2.50;;;6.30;99.90;;;;;;5089697;28;20510;-63
2022/05/31 04:25:40;;;;;;;6.43;2.40;;;6.30;99.90;;;;;;5084655;28;20101;-62
2022/05/31 04:28:06;;;;;;;;;;;6.40;99.90;;;;;;5094793;27;20146;-63
2022/05/31 04:30:31;;;;;;;3.20;1.83;;;6.40;99.90;;;;;;5085963;28;19917;-63
2022/05/31 04:32:57;;;;;;;;;;;6.40;99.90;;;;;;5072819;28;20571;-64
2022/05/31 04:35:23;;;;;;;2.97;1.83;;;6.50;99.90;;;;;;5072216;28;20483;-63
2022/05/31 04:37:48;;;;;;;3.70;2.25;;;6.50;99.90;;;;;;5075031;28;20044;-67
2022/05/31 04:40:14;;;;;;;4.97;2.30;;;6.50;99.90;;;;;;5072435;28;20043;-64
2022/05/31 04:42:41;;;;;;;;;;;6.60;99.90;;;;;;5083220;28;20119;-62
2022/05/31 04:45:08;;;;;;;8.02;2.25;;;6.60;99.90;;;;;;5068257;28;19920;-63
2022/05/31 04:47:34;;;;;;;4.38;2.33;;;6.60;99.90;;;;;;5087017;28;20085;-65
2022/05/31 04:50:00;;;;;;;;;;;6.70;99.90;;;;;;5098721;28;20075;-64
2022/05/31 04:52:25;;;;;;;8.77;2.70;;;6.80;99.90;;;;;;5097064;28;19916;-63
2022/05/31 04:54:51;;;;;;;;;;;6.80;99.90;;;;;;5081250;28;20440;-62
2022/05/31 04:57:16;;;;;;;4.40;2.13;;;6.80;99.90;;;;;;5098641;28;19916;-64
2022/05/31 04:59:42;;;;;;;5.32;3.22;;;6.90;99.90;;;;;;5085244;28;20131;-63
2022/05/31 05:02:10;;;;;;;5.80;2.47;;;6.90;99.90;;;;;;5073678;28;20047;-61
2022/05/31 05:04:35;;;;;;;7.97;2.85;;;7.00;99.90;;;;;;5073727;28;20040;-63
2022/05/31 05:07:01;;;;;;;;;;;7.00;99.90;;;;;;5078707;28;20036;-63
2022/05/31 05:09:26;;;;;;;4.13;2.10;;;7.10;99.90;;;;;;5068481;28;19943;-61
2022/05/31 05:11:52;;;;;;;;;;;7.10;99.90;;;;;;5078795;28;20036;-63
2022/05/31 05:14:17;;;;;;;4.82;2.50;;;7.20;99.90;;;;;;5074865;28;19919;-63
2022/05/31 05:16:43;;;;;;;;;;;7.20;99.90;;;;;;5087007;28;21162;-62
2022/05/31 05:19:08;;;;;;;13.35;3.25;;;7.30;99.90;;;;;;5087858;28;20014;-62
2022/05/31 05:21:34;;;;;;;;;;;7.40;99.90;;;;;;5085650;28;20064;-62
2022/05/31 05:24:00;;;;;;;6.65;1.98;;;7.40;99.90;;;;;;5088725;28;20021;-62
2022/05/31 05:26:25;;;;;;;;;;;7.50;99.90;;;;;;5088556;28;20132;-62
2022/05/31 05:31:39;;;;;;;4.78;1.98;;;7.60;99.90;;;;;;5083479;28;20072;-61
2022/05/31 05:34:05;;;;;;;6.40;2.10;;;7.70;99.90;;;;;;5088039;28;20043;-63
2022/05/31 05:36:31;;;;;;;;;;;7.80;99.90;;;;;;5091846;28;20048;-62
2022/05/31 05:38:57;;;;;;;4.20;1.90;;;7.80;99.90;;;;;;5084862;28;19932;-62
2022/05/31 05:41:23;;;;;;;;;;;7.90;99.90;;;;;;5084083;28;20043;-63
2022/05/31 05:43:49;;;;;;;5.80;2.40;;;7.90;99.90;;;;;;5086883;28;20383;-62
2022/05/31 05:46:16;;;;;;;;;;;8.00;99.90;;;;;;5090296;28;20067;-62
2022/05/31 05:48:43;;;;;;;3.80;1.75;;;8.10;99.90;;;;;;5082039;28;19920;-63
2022/05/31 05:51:23;;;;;;;5.20;2.28;;;8.10;99.90;;;;;;5099082;28;20523;-62
2022/05/31 05:53:50;;;;;;;5.25;2.00;;;8.20;99.90;;;;;;5091340;28;20042;-62
2022/05/31 05:56:17;;;;;;;7.03;2.22;;;8.30;99.90;;;;;;5085535;28;20497;-63
2022/05/31 05:58:43;;;;;;;8.77;2.13;;;8.30;99.90;;;;;;5084709;28;20056;-61
2022/05/31 06:01:26;;;;;;;6.97;2.17;;;8.40;99.90;;;;;;5073169;28;20044;-61
2022/05/31 06:04:37;;;;;;;4.65;2.03;;;8.40;99.90;;;;;;5070617;28;20045;-63
2022/05/31 06:07:20;;;;;;;7.53;2.30;;;8.60;99.90;;;;;;5082624;28;20147;-63
2022/05/31 06:09:55;;;;;;;13.18;2.42;;;8.60;99.90;;;;;;5088474;28;20143;-62
2022/05/31 06:12:24;;;;;;;6.90;2.33;;;8.70;99.90;;;;;;5087797;28;20032;-62
2022/05/31 06:15:02;;;;;;;5.55;2.17;;;8.70;99.90;;;;;;5085401;28;20047;-62
2022/05/31 06:17:34;;;;;;;5.93;1.80;;;8.80;99.90;;;;;;5086815;28;20035;-62
2022/05/31 06:20:03;;;;;;;9.77;2.28;;;8.90;99.90;;;;;;5081649;28;20040;-63
2022/05/31 06:22:29;;;;;;;5.72;2.30;;;8.90;99.90;;;;;;5087554;28;20045;-61
2022/05/31 06:24:58;;;;;;;4.78;1.80;;;9.00;99.90;;;;;;5077948;28;20024;-62
2022/05/31 06:27:24;;;;;;;6.22;1.58;;;9.10;99.90;;;;;;5084939;28;20105;-62
2022/05/31 06:29:49;;;;;;;6.25;1.92;;;9.20;99.90;;;;;;5095554;28;20607;-63
2022/05/31 06:32:16;;;;;;;;;;;9.30;99.90;;;;;;5075278;28;20036;-63
2022/05/31 06:34:42;;;;;;;6.50;1.83;;;9.40;99.90;;;;;;5073438;28;20667;-62
2022/05/31 06:37:11;;;;;;;3.10;1.55;;;9.50;99.90;;;;;;5068433;28;20052;-63
2022/05/31 06:39:38;;;;;;;3.78;1.80;;;9.60;99.90;;;;;;5077344;28;20071;-61
2022/05/31 06:42:04;;;;;;;7.15;2.10;;;9.70;99.90;;;;;;5087195;28;20412;-62
2022/05/31 06:44:32;;;;;;;9.90;2.10;;;9.80;99.90;;;;;;5076034;28;20093;-63
2022/05/31 06:46:58;;;;;;;4.07;1.70;;;9.90;99.90;;;;;;5087288;28;20055;-63
2022/05/31 06:49:23;;;;;;;;;;;10.60;99.90;;;;;;5076892;28;20040;-63
2022/05/31 06:57:17;;;;;;;6.95;2.15;;;12.60;99.90;;;;;;5066543;28;20048;-63
2022/05/31 06:59:43;;;;;;;;;;;12.60;99.90;;;;;;5067186;28;20032;-61
2022/05/31 07:02:10;;;;;;;4.05;1.45;;;12.80;99.90;;;;;;5077479;28;19916;-63
2022/05/31 07:04:36;;;;;;;3.13;1.55;;;12.80;99.30;;;;;;5072261;28;20425;-62
2022/05/31 07:07:03;;;;;;;4.38;1.45;;;12.70;99.60;;;;;;5065610;28;20049;-61
2022/05/31 07:09:29;;;;;;;2.95;1.55;;;13.00;99.80;;;;;;5071804;28;20044;-62
2022/05/31 07:11:55;;;;;;;;;;;13.40;98.50;;;;;;5086156;28;20591;-63
2022/05/31 07:14:21;;;;;;;2.33;1.43;;;13.40;97.80;;;;;;5074730;28;19916;-62
2022/05/31 07:16:46;;;;;;;;;;;13.40;98.20;;;;;;5086579;28;20868;-63
2022/05/31 07:19:12;;;;;;;4.20;1.92;;;13.40;96.60;;;;;;5085508;28;19920;-62
2022/05/31 07:21:37;;;;;;;;;;;13.30;95.50;;;;;;5082438;28;20405;-62
2022/05/31 07:24:03;;;;;;;4.70;2.08;;;13.30;93.70;;;;;;5065681;28;19920;-62
2022/05/31 07:26:29;;;;;;;;;;;13.20;93.70;;;;;;5065919;28;20040;-61
2022/05/31 07:28:55;;;;;;;4.47;2.25;;;13.30;94.40;;;;;;5070240;28;19987;-61
2022/05/31 07:31:20;;;;;;;7.82;2.30;;;13.40;92.90;;;;;;5081915;28;20028;-61
2022/05/31 07:33:47;;;;;;;;;;;13.50;92.60;;;;;;5077498;28;20795;-62
2022/05/31 07:36:13;;;;;;;5.78;2.13;;;13.80;93.20;;;;;;5094746;28;19916;-62
2022/05/31 07:38:41;;;;;;;3.65;1.77;;;14.30;92.80;;;;;;5092101;28;20133;-62
2022/05/31 07:41:08;;;;;;;10.65;2.03;;;15.10;92.50;;;;;;5093744;28;20039;-63
2022/05/31 07:43:33;;;;;;;6.35;2.40;;;15.20;91.20;;;;;;5097622;28;20048;-61
2022/05/31 07:46:06;;;;;;;;;;;15.20;91.40;;;;;;5100679;28;20503;-63
2022/05/31 07:48:34;;;;;;;4.78;1.60;;;15.00;90.00;;;;;;5090667;28;19917;-61
2022/05/31 07:50:59;;;;;;;4.28;1.90;;;15.30;90.40;;;;;;5097932;28;20036;-63
2022/05/31 07:53:25;;;;;;;;;;;15.70;86.50;;;;;;5099120;28;20465;-62
2022/05/31 07:55:56;;;;;;;3.13;1.52;;;16.10;84.70;;;;;;5106562;28;19919;-62
2022/05/31 07:58:30;;;;;;;3.15;1.60;;;16.50;82.00;;;;;;5103455;28;20571;-62
2022/05/31 08:00:56;;;;;;;2.38;1.30;;;16.70;86.10;;;;;;5069534;28;20524;-68
2022/05/31 08:03:22;;;;;;;2.45;1.52;;;16.70;82.50;;;;;;5071873;28;20059;-62
2022/05/31 08:05:47;;;;;;;3.83;1.65;;;17.00;85.20;;;;;;5068859;28;20127;-60
2022/05/31 08:08:13;;;;;;;3.60;1.52;;;17.40;80.20;;;;;;5100063;28;20057;-62
2022/05/31 08:10:39;;;;;;;5.72;1.45;;;17.00;81.40;;;;;;5084990;28;20044;-62
2022/05/31 08:13:05;;;;;;;5.50;2.10;;;16.80;82.20;;;;;;5093131;28;20518;-61
2022/05/31 08:15:30;;;;;;;4.32;1.70;;;17.10;83.40;;;;;;5074719;28;20060;-61
2022/05/31 08:17:56;;;;;;;6.82;1.77;;;17.20;79.90;;;;;;5096656;28;20043;-61
2022/05/31 08:20:22;;;;;;;3.90;1.92;;;16.70;79.30;;;;;;5078774;28;20036;-62
2022/05/31 08:22:48;;;;;;;4.43;1.95;;;16.70;83.20;;;;;;5089660;28;20187;-62
2022/05/31 08:25:14;;;;;;;8.50;2.13;;;16.50;82.70;;;;;;5078563;28;20051;-61
2022/05/31 08:27:40;;;;;;;6.70;1.88;;;16.90;81.20;;;;;;5083670;28;20041;-62
2022/05/31 08:30:07;;;;;;;4.10;1.73;;;17.50;81.20;;;;;;5080345;28;20039;-61
2022/05/31 08:32:35;;;;;;;1.98;1.50;;;17.80;80.40;;;;;;5092550;28;20036;-62
2022/05/31 08:35:01;;;;;;;3.95;1.98;;;18.30;75.40;;;;;;5074235;28;20040;-61
2022/05/31 08:37:27;;;;;;;3.20;1.77;;;18.00;77.30;;;;;;5083831;28;20047;-62
2022/05/31 08:39:53;;;;;;;2.63;1.60;;;17.90;77.30;;;;;;5087256;28;20059;-61
2022/05/31 08:42:27;;;;;;;3.00;1.27;;;18.20;76.30;;;;;;5088322;28;20035;-59
2022/05/31 08:45:01;;;;;;;1.85;1.33;;;18.90;76.90;;;;;;5080630;28;20040;-63
2022/05/31 08:47:38;;;;;;;2.45;1.70;;;19.70;71.00;;;;;;5087136;28;20419;-63
2022/05/31 08:53:28;;;;;;;3.88;1.17;;;19.90;69.60;;;;;;5087437;28;20035;-64
2022/05/31 08:59:16;;;;;;;3.28;1.30;;;18.30;73.00;;;;;;5088730;28;20449;-63
2022/05/31 09:01:56;;;;;;;3.40;1.50;;;17.20;75.70;;;;;;5102374;28;20504;-61
2022/05/31 09:04:27;;;;;;;2.22;1.50;;;17.10;80.30;;;;;;5078396;28;20036;-63
2022/05/31 09:07:07;;;;;;;5.05;1.45;;;17.20;80.30;;;;;;5077974;28;20051;-62
2022/05/31 09:10:08;;;;;;;3.42;1.20;;;17.20;78.50;;;;;;5087228;28;20044;-63
2022/05/31 09:12:56;;;;;;;2.83;1.27;;;17.10;79.40;;;;;;5072536;28;20087;-62
2022/05/31 09:15:47;;;;;;;2.97;1.45;;;17.00;80.10;;;;;;5074119;28;20037;-61
2022/05/31 09:18:39;;;;;;;2.95;1.50;;;17.00;81.40;;;;;;5083461;28;20496;-63
2022/05/31 09:21:17;;;;;;;4.53;1.75;;;16.70;81.50;;;;;;5097396;28;20116;-63
2022/05/31 09:23:45;;;;;;;7.95;1.52;;;16.80;82.00;;;;;;5096558;28;20044;-62
2022/05/31 09:26:34;;;;;;;3.47;1.77;;;16.50;79.50;;;;;;5079110;28;20040;-62
2022/05/31 09:29:14;;;;;;;2.17;1.40;;;16.20;82.80;;;;;;5076364;28;20036;-62
2022/05/31 09:31:43;;;;;;;4.60;1.50;;;16.20;85.10;;;;;;5075126;28;20067;-62
2022/05/31 09:34:50;;;;;;;3.70;1.50;;;16.10;84.30;;;;;;5091991;28;20055;-61
2022/05/31 09:37:39;;;;;;;4.82;1.40;;;16.00;85.10;;;;;;5035869;28;20041;-63
2022/05/31 09:40:34;;;;;;;4.00;1.45;;;16.10;84.90;;;;;;5065783;28;20606;-59
2022/05/31 09:43:05;;;;;;;6.88;2.78;;;16.30;84.80;;;;;;5067443;28;20052;-64
2022/05/31 09:45:35;;;;;;;4.60;1.50;;;16.40;86.10;;;;;;5066918;28;20037;-62
2022/05/31 09:48:04;;;;;;;3.63;1.40;;;16.60;86.00;;;;;;5077471;28;20040;-63
2022/05/31 09:50:31;;;;;;;3.92;1.25;;;16.90;85.60;;;;;;5076020;28;20060;-60
2022/05/31 09:52:57;;;;;;;6.05;2.08;;;17.10;86.60;;;;;;5085930;28;20051;-63
2022/05/31 09:59:22;;;;;;;2.85;1.42;;;17.00;83.80;;;;;;5077379;28;20123;-63
2022/05/31 10:01:48;;;;;;;2.40;1.42;;;16.70;84.20;;;;;;4969000;28;20107;-62
2022/05/31 10:04:21;;;;;;;;;;;16.60;84.20;;;;;;5046511;28;20494;-64
2022/05/31 10:07:05;;;;;;;2.22;1.48;;;16.50;84.30;;;;;;5063740;28;20060;-63
2022/05/31 10:09:30;;;;;;;3.33;1.30;;;16.50;84.20;;;;;;5062259;28;20470;-64
2022/05/31 10:12:04;;;;;;;;;;;16.50;85.30;;;;;;5064845;28;20052;-63
2022/05/31 10:14:34;;;;;;;3.97;1.35;;;16.40;84.50;;;;;;5067519;28;19924;-64
2022/05/31 10:17:29;;;;;;;2.45;1.13;;;16.40;84.00;;;;;;5067049;28;20036;-63
2022/05/31 10:20:07;;;;;;;6.97;1.20;;;16.40;85.30;;;;;;5065994;28;20110;-62
2022/05/31 10:22:32;;;;;;;3.38;0.90;;;16.30;83.40;;;;;;5066232;28;20047;-63
2022/05/31 10:24:58;;;;;;;;;;;16.20;86.30;;;;;;5067044;28;20095;-62
2022/05/31 10:27:28;;;;;;;4.80;1.80;;;16.00;83.80;;;;;;5064190;28;19950;-65
2022/05/31 10:30:00;;;;;;;2.58;1.15;;;15.90;84.90;;;;;;5066752;28;20045;-66
2022/05/31 10:32:35;;;;;;;2.53;1.50;;;15.70;83.30;;;;;;5080379;28;20032;-63
2022/05/31 10:35:19;;;;;;;2.67;1.13;;;15.60;83.70;;;;;;5096381;28;20042;-64
2022/05/31 10:38:25;;;;;;;3.70;1.27;;;15.70;85.80;;;;;;5095881;28;20040;-64
2022/05/31 10:40:54;;;;;;;1.92;1.20;;;15.70;89.10;;;;;;5084424;28;20498;-63
2022/05/31 10:43:38;;;;;;;3.72;1.00;;;15.80;88.40;;;;;;5079014;28;20059;-63
2022/05/31 10:46:15;;;;;;;1.65;1.00;;;15.70;82.30;;;;;;5066521;28;20131;-63
2022/05/31 10:48:46;;;;;;;4.05;1.30;;;15.70;83.10;;;;;;5096980;28;20181;-63
2022/05/31 10:51:18;;;;;;;1.52;0.80;;;15.70;85.90;;;;;;5067440;28;20043;-64
2022/05/31 10:53:44;;;;;;;1.27;1.00;;;15.70;85.00;;;;;;5080535;28;20558;-64
2022/05/31 10:56:16;;;;;;;;;;;15.70;83.80;;;;;;5095248;28;20042;-63
2022/05/31 10:58:47;;;;;;;5.93;1.08;;;15.70;82.40;;;;;;5086682;28;20458;-63
2022/05/31 11:01:33;;;;;;;1.23;0.80;;;15.60;83.80;;;;;;5078310;28;20043;-61
2022/05/31 11:04:45;;;;;;;1.23;0.88;;;15.60;85.40;;;;;;5076916;28;20125;-65
2022/05/31 11:07:32;;;;;;;5.38;1.38;;;15.60;85.10;;;;;;5085218;28;20557;-63
2022/05/31 11:13:11;;;;;;;4.88;2.40;;;15.10;93.30;;;;;;5072025;28;20700;-64
2022/05/31 11:15:46;;;;;;;;;;;14.90;92.90;;;;;;5094133;28;20161;-62
2022/05/31 11:18:31;;;;;;;8.90;2.03;;;14.80;94.40;;;;;;5071076;28;20392;-62
2022/05/31 11:21:29;;;;;;;7.28;3.03;;;14.60;95.40;;;;;;5066127;28;20554;-62
2022/05/31 11:24:12;;;;;;;6.00;2.88;;;14.40;96.40;;;;;;5078410;28;20040;-63
2022/05/31 11:27:07;;;;;;;6.32;3.13;;;14.10;97.50;;;;;;5074349;28;20439;-64
2022/05/31 11:29:45;;;;;;;9.40;3.28;;;14.00;98.40;;;;;;5067051;28;20040;-63
2022/05/31 11:32:37;;;;;;;8.98;4.00;;;13.80;99.90;;;;;;5071858;28;20503;-65
2022/05/31 11:35:09;;;;;;;11.68;3.65;;;13.80;99.90;;;;;;5080677;28;20902;-63
2022/05/31 11:38:10;;;;;;;8.55;4.07;;;13.50;99.90;;;;;;5080105;28;20048;-63
2022/05/31 11:40:46;;;;;;;8.63;3.78;;;13.50;99.90;;;;;;5063051;28;20524;-62
2022/05/31 11:43:41;;;;;;;6.53;3.53;;;13.30;99.90;;;;;;5076445;28;20036;-60
2022/05/31 11:46:26;;;;;;;8.88;3.88;;;13.30;99.90;;;;;;5065865;28;20044;-63
2022/05/31 11:49:06;;;;;;;14.80;4.18;;;13.20;99.90;;;;;;5076411;28;20115;-63
2022/05/31 11:51:57;;;;;;;14.65;4.13;;;13.20;99.90;;;;;;5065708;28;20386;-63
2022/05/31 11:55:25;;;;;;;5.30;3.17;;;13.20;99.90;;;;;;5076714;28;20041;-65
2022/05/31 11:58:06;;;;;;;9.70;4.30;;;13.10;99.90;;;;;;5068198;28;20536;-63
2022/05/31 12:01:00;;;;;;;7.45;3.58;;;12.90;99.90;;;;;;5066611;28;20135;-63
2022/05/31 12:03:51;;;;;;;5.97;3.42;;;12.70;99.90;;;;;;5072832;28;20071;-63
2022/05/31 12:06:31;;;;;;;8.23;3.08;;;12.60;99.90;;;;;;5066216;28;20044;-62
2022/05/31 12:09:19;;;;;;;10.68;3.30;;;12.60;99.90;;;;;;5075785;28;20075;-63
2022/05/31 12:12:05;;;;;;;4.90;2.70;;;12.50;99.90;;;;;;5073689;28;20048;-62
2022/05/31 12:14:37;;;;;;;7.57;3.20;;;12.40;99.90;;;;;;5079000;28;20063;-62
2022/05/31 12:17:03;;;;;;;4.53;2.78;;;12.40;99.90;;;;;;5069848;28;20519;-64
2022/05/31 12:19:41;;;;;;;5.80;3.15;;;12.20;99.90;;;;;;5086501;28;20442;-63
2022/05/31 12:22:10;;;;;;;5.35;2.67;;;11.90;99.90;;;;;;5089381;28;20826;-62
2022/05/31 12:24:48;;;;;;;5.60;2.80;;;11.90;99.90;;;;;;5079422;28;20044;-65
2022/05/31 12:27:19;;;;;;;5.75;2.90;;;12.10;99.90;;;;;;5089387;28;20573;-64
2022/05/31 12:29:51;;;;;;;3.15;1.80;;;12.10;99.90;;;;;;5081131;28;20090;-63
2022/05/31 12:32:34;;;;;;;5.25;2.50;;;12.20;99.90;;;;;;5067727;28;20059;-64
2022/05/31 12:35:04;;;;;;;4.18;2.10;;;12.40;99.90;;;;;;5080074;28;20064;-63
2022/05/31 12:38:04;;;;;;;5.40;2.47;;;12.40;99.90;;;;;;5069384;28;20071;-64
2022/05/31 12:40:32;;;;;;;3.28;2.20;;;12.70;99.90;;;;;;5079727;28;20047;-61
2022/05/31 12:43:03;;;;;;;3.20;1.70;;;12.80;99.90;;;;;;5088590;28;20032;-63
2022/05/31 12:45:39;;;;;;;3.90;1.67;;;12.80;99.90;;;;;;5079155;28;20089;-64
2022/05/31 12:48:26;;;;;;;4.83;1.87;;;12.90;99.90;;;;;;5088838;28;20040;-63
2022/05/31 12:50:55;;;;;;;5.20;1.88;;;13.00;99.90;;;;;;5080848;28;20094;-66
2022/05/31 12:53:43;;;;;;;4.18;1.80;;;13.20;99.90;;;;;;5087198;28;20546;-63
2022/05/31 12:56:31;;;;;;;4.57;1.48;;;13.50;99.90;;;;;;5081773;28;20388;-63
2022/05/31 12:58:58;;;;;;;2.60;1.65;;;13.80;99.90;;;;;;5081790;28;20049;-64
2022/05/31 13:01:24;;;;;;;4.03;1.33;;;14.20;99.90;;;;;;5073600;28;20045;-63
2022/05/31 13:03:50;;;;;;;;;;;14.50;99.90;;;;;;5073447;28;20062;-66
2022/05/31 13:07:11;;;;;;;3.47;1.60;;;14.70;99.90;;;;;;5088673;28;20035;-62
2022/05/31 13:09:44;;;;;;;3.05;1.38;;;14.70;99.90;;;;;;5078431;28;20639;-63
2022/05/31 13:20:56;;;;;;;4.93;1.40;;;14.60;99.90;;;;;;5078665;28;20037;-64
2022/05/31 13:23:27;;;;;;;1.90;1.27;;;14.60;99.90;;;;;;5068117;28;20037;-64
2022/05/31 13:25:56;;;;;;;2.55;1.30;;;14.60;99.90;;;;;;5078247;28;20489;-64
2022/05/31 13:28:40;;;;;;;2.97;1.30;;;14.80;99.90;;;;;;5073430;28;20070;-62
2022/05/31 13:31:15;;;;;;;1.40;1.20;;;14.90;99.90;;;;;;5081463;28;20484;-63
2022/05/31 13:33:42;;;;;;;1.35;1.20;;;14.90;99.90;;;;;;5068332;28;20040;-63
2022/05/31 13:36:19;;;;;;;2.08;1.20;;;15.00;99.90;;;;;;5076157;28;20412;-63
2022/05/31 13:38:46;;;;;;;2.22;1.40;;;15.10;99.90;;;;;;5084252;28;20038;-62
2022/05/31 13:41:16;;;;;;;2.28;1.33;;;15.10;99.90;;;;;;5067969;28;20143;-63
2022/05/31 13:43:47;;;;;;;3.67;1.33;;;14.90;99.90;;;;;;5067342;28;20033;-61
2022/05/31 13:46:42;;;;;;;3.65;1.20;;;14.80;99.90;;;;;;5077730;28;20047;-60
2022/05/31 13:49:16;;;;;;;3.53;1.50;;;14.80;99.90;;;;;;5068036;28;20051;-62
2022/05/31 13:51:51;;;;;;;3.47;1.40;;;14.50;99.90;;;;;;5076519;28;20098;-63
2022/05/31 13:54:21;;;;;;;4.57;1.70;;;14.60;99.90;;;;;;5068410;28;20067;-63
2022/05/31 13:56:50;;;;;;;5.32;1.50;;;14.70;99.90;;;;;;5078801;28;20054;-63
2022/05/31 13:59:38;;;;;;;1.90;1.23;;;14.80;99.90;;;;;;5076844;28;20111;-63